sensor_id;sensor_type;location;lat;lon;timestamp;P1;durP1;ratioP1;P2;durP2;ratioP2
4754;SDS011;2391;47.212;7.542;2023-05-20T00:00:16;4.13;;;3.73;;
4754;SDS011;2391;47.212;7.542;2023-05-20T00:02:42;11.07;;;4.03;;
4754;SDS011;2391;47.212;7.542;2023-05-20T00:05:08;4.20;;;3.90;;
4754;SDS011;2391;47.212;7.542;2023-05-20T00:07:33;5.03;;;4.00;;
4754;SDS011;2391;47.212;7.542;2023-05-20T00:09:59;4.63;;;4.20;;
4754;SDS011;2391;47.212;7.542;2023-05-20T00:12:25;6.60;;;4.43;;
4754;SDS011;2391;47.212;7.542;2023-05-20T00:14:51;5.57;;;3.50;;
4754;SDS011;2391;47.212;7.542;2023-05-20T00:17:16;8.13;;;4.57;;
4754;SDS011;2391;47.212;7.542;2023-05-20T00:19:42;8.37;;;4.93;;
4754;SDS011;2391;47.212;7.542;2023-05-20T00:22:08;9.17;;;3.73;;
4754;SDS011;2391;47.212;7.542;2023-05-20T00:24:33;3.77;;;3.47;;
4754;SDS011;2391;47.212;7.542;2023-05-20T00:26:59;8.57;;;3.87;;
4754;SDS011;2391;47.212;7.542;2023-05-20T00:29:25;3.80;;;3.60;;
4754;SDS011;2391;47.212;7.542;2023-05-20T00:31:52;8.33;;;4.53;;
4754;SDS011;2391;47.212;7.542;2023-05-20T00:34:19;7.20;;;4.03;;
4754;SDS011;2391;47.212;7.542;2023-05-20T00:36:45;3.70;;;3.40;;
4754;SDS011;2391;47.212;7.542;2023-05-20T00:39:10;4.50;;;4.10;;
4754;SDS011;2391;47.212;7.542;2023-05-20T00:41:36;4.30;;;3.90;;
4754;SDS011;2391;47.212;7.542;2023-05-20T00:44:03;5.77;;;4.00;;
4754;SDS011;2391;47.212;7.542;2023-05-20T00:46:29;4.50;;;4.10;;
4754;SDS011;2391;47.212;7.542;2023-05-20T00:48:55;5.60;;;4.27;;
4754;SDS011;2391;47.212;7.542;2023-05-20T00:51:20;4.23;;;3.93;;
4754;SDS011;2391;47.212;7.542;2023-05-20T00:53:46;3.70;;;3.40;;
4754;SDS011;2391;47.212;7.542;2023-05-20T00:56:13;3.87;;;3.60;;
4754;SDS011;2391;47.212;7.542;2023-05-20T00:58:39;4.93;;;4.50;;
4754;SDS011;2391;47.212;7.542;2023-05-20T01:01:05;5.77;;;4.07;;
4754;SDS011;2391;47.212;7.542;2023-05-20T01:03:31;8.90;;;4.40;;
4754;SDS011;2391;47.212;7.542;2023-05-20T01:05:57;5.10;;;4.20;;
4754;SDS011;2391;47.212;7.542;2023-05-20T01:08:23;6.13;;;4.17;;
4754;SDS011;2391;47.212;7.542;2023-05-20T01:11:03;4.93;;;4.40;;
4754;SDS011;2391;47.212;7.542;2023-05-20T01:13:35;4.80;;;4.30;;
4754;SDS011;2391;47.212;7.542;2023-05-20T01:16:03;4.57;;;4.17;;
4754;SDS011;2391;47.212;7.542;2023-05-20T01:18:29;4.20;;;3.90;;
4754;SDS011;2391;47.212;7.542;2023-05-20T01:20:57;5.20;;;3.93;;
4754;SDS011;2391;47.212;7.542;2023-05-20T01:23:58;8.10;;;3.37;;
4754;SDS011;2391;47.212;7.542;2023-05-20T01:26:03;5.20;;;3.70;;
4754;SDS011;2391;47.212;7.542;2023-05-20T01:28:31;4.63;;;4.23;;
4754;SDS011;2391;47.212;7.542;2023-05-20T01:31:00;6.27;;;3.73;;
4754;SDS011;2391;47.212;7.542;2023-05-20T01:33:27;6.20;;;4.00;;
4754;SDS011;2391;47.212;7.542;2023-05-20T01:35:54;4.57;;;4.20;;
4754;SDS011;2391;47.212;7.542;2023-05-20T01:38:20;4.43;;;4.10;;
4754;SDS011;2391;47.212;7.542;2023-05-20T01:40:48;5.77;;;3.90;;
4754;SDS011;2391;47.212;7.542;2023-05-20T01:43:16;5.20;;;3.70;;
4754;SDS011;2391;47.212;7.542;2023-05-20T01:45:42;4.87;;;4.47;;
4754;SDS011;2391;47.212;7.542;2023-05-20T01:48:11;6.00;;;4.60;;
4754;SDS011;2391;47.212;7.542;2023-05-20T01:50:38;5.40;;;4.77;;
4754;SDS011;2391;47.212;7.542;2023-05-20T01:53:04;5.67;;;4.63;;
4754;SDS011;2391;47.212;7.542;2023-05-20T01:55:32;4.00;;;3.70;;
4754;SDS011;2391;47.212;7.542;2023-05-20T01:57:57;9.80;;;4.50;;
4754;SDS011;2391;47.212;7.542;2023-05-20T02:00:23;5.30;;;3.80;;
4754;SDS011;2391;47.212;7.542;2023-05-20T02:02:49;4.93;;;4.30;;
4754;SDS011;2391;47.212;7.542;2023-05-20T02:05:15;5.33;;;4.67;;
4754;SDS011;2391;47.212;7.542;2023-05-20T02:07:41;5.93;;;4.50;;
4754;SDS011;2391;47.212;7.542;2023-05-20T02:10:06;5.20;;;4.33;;
4754;SDS011;2391;47.212;7.542;2023-05-20T02:12:33;9.60;;;4.67;;
4754;SDS011;2391;47.212;7.542;2023-05-20T02:14:58;7.23;;;4.90;;
4754;SDS011;2391;47.212;7.542;2023-05-20T02:17:24;7.07;;;5.13;;
4754;SDS011;2391;47.212;7.542;2023-05-20T02:19:50;4.67;;;4.17;;
4754;SDS011;2391;47.212;7.542;2023-05-20T02:22:16;6.50;;;4.60;;
4754;SDS011;2391;47.212;7.542;2023-05-20T02:24:42;9.87;;;5.00;;
4754;SDS011;2391;47.212;7.542;2023-05-20T02:27:08;6.07;;;4.23;;
4754;SDS011;2391;47.212;7.542;2023-05-20T02:29:35;6.93;;;4.70;;
4754;SDS011;2391;47.212;7.542;2023-05-20T02:32:01;5.47;;;4.37;;
4754;SDS011;2391;47.212;7.542;2023-05-20T02:34:27;6.30;;;5.00;;
4754;SDS011;2391;47.212;7.542;2023-05-20T02:36:54;4.70;;;4.30;;
4754;SDS011;2391;47.212;7.542;2023-05-20T02:39:20;8.30;;;5.40;;
4754;SDS011;2391;47.212;7.542;2023-05-20T02:41:46;5.70;;;5.07;;
4754;SDS011;2391;47.212;7.542;2023-05-20T02:44:12;6.97;;;4.47;;
4754;SDS011;2391;47.212;7.542;2023-05-20T02:46:38;6.13;;;4.57;;
4754;SDS011;2391;47.212;7.542;2023-05-20T02:49:04;5.23;;;4.73;;
4754;SDS011;2391;47.212;7.542;2023-05-20T02:51:30;7.07;;;4.87;;
4754;SDS011;2391;47.212;7.542;2023-05-20T02:53:58;8.37;;;5.43;;
4754;SDS011;2391;47.212;7.542;2023-05-20T02:56:24;5.27;;;4.70;;
4754;SDS011;2391;47.212;7.542;2023-05-20T02:58:51;5.57;;;3.90;;
4754;SDS011;2391;47.212;7.542;2023-05-20T03:01:17;4.23;;;3.80;;
4754;SDS011;2391;47.212;7.542;2023-05-20T03:03:42;5.97;;;4.50;;
4754;SDS011;2391;47.212;7.542;2023-05-20T03:06:08;4.40;;;3.77;;
4754;SDS011;2391;47.212;7.542;2023-05-20T03:08:34;9.00;;;5.03;;
4754;SDS011;2391;47.212;7.542;2023-05-20T03:11:00;5.43;;;4.13;;
4754;SDS011;2391;47.212;7.542;2023-05-20T03:13:26;5.43;;;4.93;;
4754;SDS011;2391;47.212;7.542;2023-05-20T03:15:52;6.43;;;5.30;;
4754;SDS011;2391;47.212;7.542;2023-05-20T03:18:18;5.23;;;4.47;;
4754;SDS011;2391;47.212;7.542;2023-05-20T03:20:44;6.60;;;4.60;;
4754;SDS011;2391;47.212;7.542;2023-05-20T03:23:11;6.30;;;5.13;;
4754;SDS011;2391;47.212;7.542;2023-05-20T03:25:37;8.23;;;5.20;;
4754;SDS011;2391;47.212;7.542;2023-05-20T03:28:03;5.47;;;4.97;;
4754;SDS011;2391;47.212;7.542;2023-05-20T03:30:31;4.97;;;4.33;;
4754;SDS011;2391;47.212;7.542;2023-05-20T03:32:57;6.10;;;4.60;;
4754;SDS011;2391;47.212;7.542;2023-05-20T03:35:23;10.63;;;4.50;;
4754;SDS011;2391;47.212;7.542;2023-05-20T03:37:49;5.40;;;4.27;;
4754;SDS011;2391;47.212;7.542;2023-05-20T03:40:17;5.50;;;3.93;;
4754;SDS011;2391;47.212;7.542;2023-05-20T03:42:43;8.33;;;5.03;;
4754;SDS011;2391;47.212;7.542;2023-05-20T03:45:09;4.93;;;4.20;;
4754;SDS011;2391;47.212;7.542;2023-05-20T03:47:35;7.87;;;5.00;;
4754;SDS011;2391;47.212;7.542;2023-05-20T03:50:01;5.13;;;4.73;;
4754;SDS011;2391;47.212;7.542;2023-05-20T03:52:27;7.00;;;4.27;;
4754;SDS011;2391;47.212;7.542;2023-05-20T03:54:53;5.07;;;4.40;;
4754;SDS011;2391;47.212;7.542;2023-05-20T03:57:18;8.27;;;4.80;;
4754;SDS011;2391;47.212;7.542;2023-05-20T03:59:44;7.37;;;4.80;;
4754;SDS011;2391;47.212;7.542;2023-05-20T04:02:10;4.60;;;4.20;;
4754;SDS011;2391;47.212;7.542;2023-05-20T04:04:36;6.00;;;5.10;;
4754;SDS011;2391;47.212;7.542;2023-05-20T04:07:02;7.70;;;5.13;;
4754;SDS011;2391;47.212;7.542;2023-05-20T04:09:29;6.20;;;4.47;;
4754;SDS011;2391;47.212;7.542;2023-05-20T04:11:55;6.90;;;4.77;;
4754;SDS011;2391;47.212;7.542;2023-05-20T04:14:21;6.53;;;4.97;;
4754;SDS011;2391;47.212;7.542;2023-05-20T04:16:47;7.03;;;4.13;;
4754;SDS011;2391;47.212;7.542;2023-05-20T04:19:14;8.30;;;4.50;;
4754;SDS011;2391;47.212;7.542;2023-05-20T04:21:41;6.17;;;5.00;;
4754;SDS011;2391;47.212;7.542;2023-05-20T04:24:07;5.93;;;5.23;;
4754;SDS011;2391;47.212;7.542;2023-05-20T04:26:33;6.10;;;4.67;;
4754;SDS011;2391;47.212;7.542;2023-05-20T04:29:00;5.47;;;4.30;;
4754;SDS011;2391;47.212;7.542;2023-05-20T04:31:28;9.10;;;4.80;;
4754;SDS011;2391;47.212;7.542;2023-05-20T04:33:58;7.27;;;5.27;;
4754;SDS011;2391;47.212;7.542;2023-05-20T04:36:23;4.27;;;4.00;;
4754;SDS011;2391;47.212;7.542;2023-05-20T04:38:53;8.20;;;5.00;;
4754;SDS011;2391;47.212;7.542;2023-05-20T04:41:19;6.50;;;5.20;;
4754;SDS011;2391;47.212;7.542;2023-05-20T04:43:45;4.57;;;4.00;;
4754;SDS011;2391;47.212;7.542;2023-05-20T04:46:11;6.40;;;4.90;;
4754;SDS011;2391;47.212;7.542;2023-05-20T04:48:37;6.00;;;5.10;;
4754;SDS011;2391;47.212;7.542;2023-05-20T04:51:02;7.80;;;5.40;;
4754;SDS011;2391;47.212;7.542;2023-05-20T04:53:28;5.50;;;5.00;;
4754;SDS011;2391;47.212;7.542;2023-05-20T04:55:55;7.57;;;5.70;;
4754;SDS011;2391;47.212;7.542;2023-05-20T04:58:21;8.03;;;4.97;;
4754;SDS011;2391;47.212;7.542;2023-05-20T05:00:48;7.23;;;5.53;;
4754;SDS011;2391;47.212;7.542;2023-05-20T05:03:16;6.63;;;5.50;;
4754;SDS011;2391;47.212;7.542;2023-05-20T05:05:42;6.10;;;4.90;;
4754;SDS011;2391;47.212;7.542;2023-05-20T05:08:08;7.97;;;4.67;;
4754;SDS011;2391;47.212;7.542;2023-05-20T05:10:36;6.63;;;4.83;;
4754;SDS011;2391;47.212;7.542;2023-05-20T05:13:02;6.50;;;5.33;;
4754;SDS011;2391;47.212;7.542;2023-05-20T05:15:27;5.20;;;4.70;;
4754;SDS011;2391;47.212;7.542;2023-05-20T05:17:53;6.33;;;4.50;;
4754;SDS011;2391;47.212;7.542;2023-05-20T05:20:20;5.20;;;4.57;;
4754;SDS011;2391;47.212;7.542;2023-05-20T05:22:46;10.80;;;5.20;;
4754;SDS011;2391;47.212;7.542;2023-05-20T05:25:12;6.30;;;4.23;;
4754;SDS011;2391;47.212;7.542;2023-05-20T05:27:38;6.53;;;5.07;;
4754;SDS011;2391;47.212;7.542;2023-05-20T05:30:04;6.40;;;4.47;;
4754;SDS011;2391;47.212;7.542;2023-05-20T05:32:31;6.60;;;4.30;;
4754;SDS011;2391;47.212;7.542;2023-05-20T05:34:57;5.40;;;4.70;;
4754;SDS011;2391;47.212;7.542;2023-05-20T05:37:23;7.50;;;5.00;;
4754;SDS011;2391;47.212;7.542;2023-05-20T05:39:49;6.57;;;4.80;;
4754;SDS011;2391;47.212;7.542;2023-05-20T05:42:15;4.60;;;4.10;;
4754;SDS011;2391;47.212;7.542;2023-05-20T05:44:41;5.83;;;5.03;;
4754;SDS011;2391;47.212;7.542;2023-05-20T05:47:06;5.47;;;4.40;;
4754;SDS011;2391;47.212;7.542;2023-05-20T05:49:32;5.83;;;4.87;;
4754;SDS011;2391;47.212;7.542;2023-05-20T05:51:58;7.00;;;5.20;;
4754;SDS011;2391;47.212;7.542;2023-05-20T05:54:24;5.23;;;4.57;;
4754;SDS011;2391;47.212;7.542;2023-05-20T05:56:50;4.87;;;4.47;;
4754;SDS011;2391;47.212;7.542;2023-05-20T05:59:16;4.83;;;4.30;;
4754;SDS011;2391;47.212;7.542;2023-05-20T06:01:43;5.27;;;4.20;;
4754;SDS011;2391;47.212;7.542;2023-05-20T06:04:09;5.00;;;4.57;;
4754;SDS011;2391;47.212;7.542;2023-05-20T06:06:35;9.40;;;4.10;;
4754;SDS011;2391;47.212;7.542;2023-05-20T06:09:01;5.90;;;4.27;;
4754;SDS011;2391;47.212;7.542;2023-05-20T06:11:27;7.90;;;4.30;;
4754;SDS011;2391;47.212;7.542;2023-05-20T06:13:53;9.30;;;4.83;;
4754;SDS011;2391;47.212;7.542;2023-05-20T06:16:19;7.17;;;4.70;;
4754;SDS011;2391;47.212;7.542;2023-05-20T06:18:45;4.90;;;4.50;;
4754;SDS011;2391;47.212;7.542;2023-05-20T06:21:11;7.93;;;5.00;;
4754;SDS011;2391;47.212;7.542;2023-05-20T06:23:37;8.73;;;3.93;;
4754;SDS011;2391;47.212;7.542;2023-05-20T06:26:03;5.50;;;4.30;;
4754;SDS011;2391;47.212;7.542;2023-05-20T06:28:29;6.93;;;4.53;;
4754;SDS011;2391;47.212;7.542;2023-05-20T06:30:55;5.67;;;4.47;;
4754;SDS011;2391;47.212;7.542;2023-05-20T06:33:25;5.03;;;4.63;;
4754;SDS011;2391;47.212;7.542;2023-05-20T06:35:52;6.93;;;4.40;;
4754;SDS011;2391;47.212;7.542;2023-05-20T06:38:19;7.60;;;5.17;;
4754;SDS011;2391;47.212;7.542;2023-05-20T06:40:45;10.27;;;4.10;;
4754;SDS011;2391;47.212;7.542;2023-05-20T06:43:11;5.73;;;4.20;;
4754;SDS011;2391;47.212;7.542;2023-05-20T06:45:37;5.80;;;5.10;;
4754;SDS011;2391;47.212;7.542;2023-05-20T06:48:02;12.23;;;3.90;;
4754;SDS011;2391;47.212;7.542;2023-05-20T06:50:28;6.97;;;3.80;;
4754;SDS011;2391;47.212;7.542;2023-05-20T06:52:54;7.10;;;4.10;;
4754;SDS011;2391;47.212;7.542;2023-05-20T06:55:20;5.67;;;3.37;;
4754;SDS011;2391;47.212;7.542;2023-05-20T06:57:45;5.63;;;4.40;;
4754;SDS011;2391;47.212;7.542;2023-05-20T07:00:11;4.73;;;4.30;;
4754;SDS011;2391;47.212;7.542;2023-05-20T07:02:40;5.87;;;3.93;;
4754;SDS011;2391;47.212;7.542;2023-05-20T07:05:07;4.90;;;3.30;;
4754;SDS011;2391;47.212;7.542;2023-05-20T07:07:33;5.50;;;4.17;;
4754;SDS011;2391;47.212;7.542;2023-05-20T07:09:59;6.60;;;4.57;;
4754;SDS011;2391;47.212;7.542;2023-05-20T07:12:25;4.90;;;4.30;;
4754;SDS011;2391;47.212;7.542;2023-05-20T07:14:51;7.60;;;4.70;;
4754;SDS011;2391;47.212;7.542;2023-05-20T07:17:16;6.50;;;4.33;;
4754;SDS011;2391;47.212;7.542;2023-05-20T07:19:42;6.50;;;4.73;;
4754;SDS011;2391;47.212;7.542;2023-05-20T07:22:08;4.40;;;3.40;;
4754;SDS011;2391;47.212;7.542;2023-05-20T07:24:34;4.67;;;4.20;;
4754;SDS011;2391;47.212;7.542;2023-05-20T07:27:00;5.00;;;4.50;;
4754;SDS011;2391;47.212;7.542;2023-05-20T07:29:27;9.10;;;4.90;;
4754;SDS011;2391;47.212;7.542;2023-05-20T07:31:52;6.87;;;4.60;;
4754;SDS011;2391;47.212;7.542;2023-05-20T07:34:18;5.30;;;4.30;;
4754;SDS011;2391;47.212;7.542;2023-05-20T07:36:44;5.17;;;4.00;;
4754;SDS011;2391;47.212;7.542;2023-05-20T07:39:10;5.23;;;4.20;;
4754;SDS011;2391;47.212;7.542;2023-05-20T07:41:36;6.27;;;4.40;;
4754;SDS011;2391;47.212;7.542;2023-05-20T07:44:05;8.40;;;4.87;;
4754;SDS011;2391;47.212;7.542;2023-05-20T07:46:33;4.77;;;4.37;;
4754;SDS011;2391;47.212;7.542;2023-05-20T07:48:59;6.07;;;3.97;;
4754;SDS011;2391;47.212;7.542;2023-05-20T07:51:25;4.47;;;4.07;;
4754;SDS011;2391;47.212;7.542;2023-05-20T07:53:50;7.00;;;5.00;;
4754;SDS011;2391;47.212;7.542;2023-05-20T07:56:16;7.30;;;5.00;;
4754;SDS011;2391;47.212;7.542;2023-05-20T07:58:42;5.87;;;4.60;;
4754;SDS011;2391;47.212;7.542;2023-05-20T08:01:08;10.13;;;5.60;;
4754;SDS011;2391;47.212;7.542;2023-05-20T08:03:35;7.63;;;5.47;;
4754;SDS011;2391;47.212;7.542;2023-05-20T08:15:38;7.17;;;5.83;;
4754;SDS011;2391;47.212;7.542;2023-05-20T08:25:07;6.10;;;5.50;;
4754;SDS011;2391;47.212;7.542;2023-05-20T08:30:50;9.37;;;5.70;;
4754;SDS011;2391;47.212;7.542;2023-05-20T08:33:54;6.70;;;6.00;;
4754;SDS011;2391;47.212;7.542;2023-05-20T08:45:30;6.90;;;5.43;;
4754;SDS011;2391;47.212;7.542;2023-05-20T08:48:27;10.40;;;5.60;;
4754;SDS011;2391;47.212;7.542;2023-05-20T08:51:20;6.47;;;5.50;;
4754;SDS011;2391;47.212;7.542;2023-05-20T08:54:23;8.40;;;6.23;;
4754;SDS011;2391;47.212;7.542;2023-05-20T08:57:13;6.53;;;5.13;;
4754;SDS011;2391;47.212;7.542;2023-05-20T09:03:39;12.30;;;6.10;;
4754;SDS011;2391;47.212;7.542;2023-05-20T09:06:29;8.97;;;6.80;;
4754;SDS011;2391;47.212;7.542;2023-05-20T09:09:32;9.30;;;7.33;;
4754;SDS011;2391;47.212;7.542;2023-05-20T09:12:38;8.67;;;6.63;;
4754;SDS011;2391;47.212;7.542;2023-05-20T09:15:31;8.73;;;6.20;;
4754;SDS011;2391;47.212;7.542;2023-05-20T09:18:22;8.33;;;6.60;;
4754;SDS011;2391;47.212;7.542;2023-05-20T09:21:25;7.53;;;5.30;;
4754;SDS011;2391;47.212;7.542;2023-05-20T09:24:01;10.13;;;6.53;;
4754;SDS011;2391;47.212;7.542;2023-05-20T09:26:44;12.43;;;6.37;;
4754;SDS011;2391;47.212;7.542;2023-05-20T09:29:22;8.43;;;5.87;;
4754;SDS011;2391;47.212;7.542;2023-05-20T09:32:01;11.23;;;7.33;;
4754;SDS011;2391;47.212;7.542;2023-05-20T09:41:22;9.70;;;6.90;;
4754;SDS011;2391;47.212;7.542;2023-05-20T09:44:03;9.40;;;6.73;;
4754;SDS011;2391;47.212;7.542;2023-05-20T09:49:42;13.17;;;7.50;;
4754;SDS011;2391;47.212;7.542;2023-05-20T09:52:39;9.47;;;6.63;;
4754;SDS011;2391;47.212;7.542;2023-05-20T09:55:16;7.20;;;6.50;;
4754;SDS011;2391;47.212;7.542;2023-05-20T10:01:12;8.87;;;7.37;;
4754;SDS011;2391;47.212;7.542;2023-05-20T10:07:35;8.23;;;6.20;;
4754;SDS011;2391;47.212;7.542;2023-05-20T10:25:28;8.87;;;6.90;;
4754;SDS011;2391;47.212;7.542;2023-05-20T10:28:35;7.10;;;6.20;;
4754;SDS011;2391;47.212;7.542;2023-05-20T10:31:28;7.27;;;6.10;;
4754;SDS011;2391;47.212;7.542;2023-05-20T10:34:43;5.97;;;5.37;;
4754;SDS011;2391;47.212;7.542;2023-05-20T10:37:22;8.60;;;5.57;;
4754;SDS011;2391;47.212;7.542;2023-05-20T10:39:49;9.93;;;6.10;;
4754;SDS011;2391;47.212;7.542;2023-05-20T10:42:15;7.10;;;6.40;;
4754;SDS011;2391;47.212;7.542;2023-05-20T10:44:46;8.13;;;6.53;;
4754;SDS011;2391;47.212;7.542;2023-05-20T10:47:12;7.30;;;6.47;;
4754;SDS011;2391;47.212;7.542;2023-05-20T10:49:44;8.87;;;6.00;;
4754;SDS011;2391;47.212;7.542;2023-05-20T10:52:11;7.57;;;6.50;;
4754;SDS011;2391;47.212;7.542;2023-05-20T10:54:45;8.20;;;6.33;;
4754;SDS011;2391;47.212;7.542;2023-05-20T10:57:12;8.30;;;5.60;;
4754;SDS011;2391;47.212;7.542;2023-05-20T10:59:39;7.07;;;6.27;;
4754;SDS011;2391;47.212;7.542;2023-05-20T11:02:06;8.63;;;6.07;;
4754;SDS011;2391;47.212;7.542;2023-05-20T11:04:34;8.13;;;6.57;;
4754;SDS011;2391;47.212;7.542;2023-05-20T11:07:00;9.20;;;6.60;;
4754;SDS011;2391;47.212;7.542;2023-05-20T11:09:27;8.40;;;6.33;;
4754;SDS011;2391;47.212;7.542;2023-05-20T11:11:55;7.97;;;5.80;;
4754;SDS011;2391;47.212;7.542;2023-05-20T11:14:20;9.77;;;6.13;;
4754;SDS011;2391;47.212;7.542;2023-05-20T11:16:50;10.90;;;6.47;;
4754;SDS011;2391;47.212;7.542;2023-05-20T11:19:18;6.47;;;5.80;;
4754;SDS011;2391;47.212;7.542;2023-05-20T11:21:44;11.13;;;6.60;;
4754;SDS011;2391;47.212;7.542;2023-05-20T11:24:11;8.93;;;6.67;;
4754;SDS011;2391;47.212;7.542;2023-05-20T11:26:37;7.73;;;6.17;;
4754;SDS011;2391;47.212;7.542;2023-05-20T11:29:03;8.23;;;6.17;;
4754;SDS011;2391;47.212;7.542;2023-05-20T11:31:30;10.60;;;6.80;;
4754;SDS011;2391;47.212;7.542;2023-05-20T11:33:59;6.83;;;6.17;;
4754;SDS011;2391;47.212;7.542;2023-05-20T11:36:28;6.30;;;5.70;;
4754;SDS011;2391;47.212;7.542;2023-05-20T13:27:25;5.20;;;4.60;;
4754;SDS011;2391;47.212;7.542;2023-05-20T13:29:51;5.17;;;4.67;;
4754;SDS011;2391;47.212;7.542;2023-05-20T13:32:17;6.30;;;4.60;;
4754;SDS011;2391;47.212;7.542;2023-05-20T13:34:43;4.83;;;4.43;;
4754;SDS011;2391;47.212;7.542;2023-05-20T13:37:09;6.03;;;4.70;;
4754;SDS011;2391;47.212;7.542;2023-05-20T13:39:35;8.87;;;4.63;;
4754;SDS011;2391;47.212;7.542;2023-05-20T13:42:01;7.00;;;4.93;;
4754;SDS011;2391;47.212;7.542;2023-05-20T13:44:28;5.93;;;5.40;;
4754;SDS011;2391;47.212;7.542;2023-05-20T13:46:54;5.23;;;4.03;;
4754;SDS011;2391;47.212;7.542;2023-05-20T13:49:20;4.97;;;4.57;;
4754;SDS011;2391;47.212;7.542;2023-05-20T13:51:46;5.60;;;5.10;;
4754;SDS011;2391;47.212;7.542;2023-05-20T13:54:12;5.57;;;5.07;;
4754;SDS011;2391;47.212;7.542;2023-05-20T13:56:38;4.30;;;3.97;;
4754;SDS011;2391;47.212;7.542;2023-05-20T13:59:04;4.50;;;4.00;;
4754;SDS011;2391;47.212;7.542;2023-05-20T14:01:29;4.13;;;3.83;;
4754;SDS011;2391;47.212;7.542;2023-05-20T14:03:57;6.67;;;4.73;;
4754;SDS011;2391;47.212;7.542;2023-05-20T14:06:24;6.33;;;4.00;;
4754;SDS011;2391;47.212;7.542;2023-05-20T14:08:52;5.73;;;4.33;;
4754;SDS011;2391;47.212;7.542;2023-05-20T14:11:19;6.07;;;3.63;;
4754;SDS011;2391;47.212;7.542;2023-05-20T14:13:46;4.70;;;4.17;;
4754;SDS011;2391;47.212;7.542;2023-05-20T14:16:12;4.60;;;4.20;;
4754;SDS011;2391;47.212;7.542;2023-05-20T14:18:38;5.43;;;3.70;;
4754;SDS011;2391;47.212;7.542;2023-05-20T14:21:03;6.20;;;4.00;;
4754;SDS011;2391;47.212;7.542;2023-05-20T14:23:29;4.70;;;4.30;;
4754;SDS011;2391;47.212;7.542;2023-05-20T14:25:55;4.83;;;4.43;;
4754;SDS011;2391;47.212;7.542;2023-05-20T14:28:21;4.47;;;4.17;;
4754;SDS011;2391;47.212;7.542;2023-05-20T14:30:47;3.70;;;3.40;;
4754;SDS011;2391;47.212;7.542;2023-05-20T14:33:12;3.50;;;3.20;;
4754;SDS011;2391;47.212;7.542;2023-05-20T14:35:38;4.20;;;3.90;;
4754;SDS011;2391;47.212;7.542;2023-05-20T14:38:04;4.27;;;3.90;;
4754;SDS011;2391;47.212;7.542;2023-05-20T14:40:31;7.93;;;4.60;;
4754;SDS011;2391;47.212;7.542;2023-05-20T14:42:56;4.10;;;3.80;;
4754;SDS011;2391;47.212;7.542;2023-05-20T14:45:22;6.07;;;3.67;;
4754;SDS011;2391;47.212;7.542;2023-05-20T14:47:48;4.50;;;4.10;;
4754;SDS011;2391;47.212;7.542;2023-05-20T14:50:14;8.23;;;4.60;;
4754;SDS011;2391;47.212;7.542;2023-05-20T14:52:39;4.73;;;4.23;;
4754;SDS011;2391;47.212;7.542;2023-05-20T14:55:05;5.20;;;4.17;;
4754;SDS011;2391;47.212;7.542;2023-05-20T14:57:32;5.30;;;4.53;;
4754;SDS011;2391;47.212;7.542;2023-05-20T14:59:58;6.90;;;4.30;;
4754;SDS011;2391;47.212;7.542;2023-05-20T15:02:24;4.97;;;4.57;;
4754;SDS011;2391;47.212;7.542;2023-05-20T15:04:49;4.77;;;4.43;;
4754;SDS011;2391;47.212;7.542;2023-05-20T15:07:15;5.33;;;4.83;;
4754;SDS011;2391;47.212;7.542;2023-05-20T15:09:41;5.00;;;4.23;;
4754;SDS011;2391;47.212;7.542;2023-05-20T15:12:08;4.80;;;4.27;;
4754;SDS011;2391;47.212;7.542;2023-05-20T15:14:35;4.80;;;4.40;;
4754;SDS011;2391;47.212;7.542;2023-05-20T15:17:01;6.07;;;4.73;;
4754;SDS011;2391;47.212;7.542;2023-05-20T15:19:27;5.50;;;4.93;;
4754;SDS011;2391;47.212;7.542;2023-05-20T15:21:54;8.13;;;4.40;;
4754;SDS011;2391;47.212;7.542;2023-05-20T15:24:20;5.33;;;3.93;;
4754;SDS011;2391;47.212;7.542;2023-05-20T15:26:46;4.97;;;4.50;;
4754;SDS011;2391;47.212;7.542;2023-05-20T15:29:12;4.57;;;4.23;;
4754;SDS011;2391;47.212;7.542;2023-05-20T15:31:38;4.50;;;4.07;;
4754;SDS011;2391;47.212;7.542;2023-05-20T15:34:04;5.60;;;4.50;;
4754;SDS011;2391;47.212;7.542;2023-05-20T15:36:30;5.23;;;4.80;;
4754;SDS011;2391;47.212;7.542;2023-05-20T15:38:56;12.50;;;4.63;;
4754;SDS011;2391;47.212;7.542;2023-05-20T15:41:21;5.77;;;4.43;;
4754;SDS011;2391;47.212;7.542;2023-05-20T15:43:47;5.23;;;4.57;;
4754;SDS011;2391;47.212;7.542;2023-05-20T15:46:13;5.03;;;4.53;;
4754;SDS011;2391;47.212;7.542;2023-05-20T15:48:39;4.60;;;4.20;;
4754;SDS011;2391;47.212;7.542;2023-05-20T15:51:05;5.43;;;4.93;;
4754;SDS011;2391;47.212;7.542;2023-05-20T15:53:31;4.60;;;4.30;;
4754;SDS011;2391;47.212;7.542;2023-05-20T15:55:57;5.97;;;4.90;;
4754;SDS011;2391;47.212;7.542;2023-05-20T15:58:23;5.37;;;4.97;;
4754;SDS011;2391;47.212;7.542;2023-05-20T16:00:49;4.87;;;4.47;;
4754;SDS011;2391;47.212;7.542;2023-05-20T16:03:15;6.53;;;5.17;;
4754;SDS011;2391;47.212;7.542;2023-05-20T16:05:41;5.10;;;4.60;;
4754;SDS011;2391;47.212;7.542;2023-05-20T16:08:06;5.70;;;5.20;;
4754;SDS011;2391;47.212;7.542;2023-05-20T16:10:32;9.37;;;5.30;;
4754;SDS011;2391;47.212;7.542;2023-05-20T16:12:59;6.00;;;5.40;;
4754;SDS011;2391;47.212;7.542;2023-05-20T16:15:25;6.60;;;5.50;;
4754;SDS011;2391;47.212;7.542;2023-05-20T16:17:52;5.57;;;5.03;;
4754;SDS011;2391;47.212;7.542;2023-05-20T16:20:18;6.13;;;5.50;;
4754;SDS011;2391;47.212;7.542;2023-05-20T16:22:43;9.40;;;5.50;;
4754;SDS011;2391;47.212;7.542;2023-05-20T16:25:09;6.67;;;5.50;;
4754;SDS011;2391;47.212;7.542;2023-05-20T16:27:35;5.43;;;4.93;;
4754;SDS011;2391;47.212;7.542;2023-05-20T16:30:01;5.60;;;5.20;;
4754;SDS011;2391;47.212;7.542;2023-05-20T16:32:28;5.90;;;5.40;;
4754;SDS011;2391;47.212;7.542;2023-05-20T16:34:55;10.00;;;4.70;;
4754;SDS011;2391;47.212;7.542;2023-05-20T16:37:21;6.30;;;5.70;;
4754;SDS011;2391;47.212;7.542;2023-05-20T16:39:46;5.50;;;5.00;;
4754;SDS011;2391;47.212;7.542;2023-05-20T16:42:12;5.27;;;4.77;;
4754;SDS011;2391;47.212;7.542;2023-05-20T16:44:38;5.43;;;5.03;;
4754;SDS011;2391;47.212;7.542;2023-05-20T16:47:04;5.37;;;4.70;;
4754;SDS011;2391;47.212;7.542;2023-05-20T16:49:30;5.17;;;4.70;;
4754;SDS011;2391;47.212;7.542;2023-05-20T16:51:56;5.10;;;4.70;;
4754;SDS011;2391;47.212;7.542;2023-05-20T16:54:22;4.53;;;4.10;;
4754;SDS011;2391;47.212;7.542;2023-05-20T16:56:48;5.17;;;4.70;;
4754;SDS011;2391;47.212;7.542;2023-05-20T16:59:14;5.30;;;4.47;;
4754;SDS011;2391;47.212;7.542;2023-05-20T17:01:41;5.50;;;5.07;;
4754;SDS011;2391;47.212;7.542;2023-05-20T17:04:07;5.50;;;5.00;;
4754;SDS011;2391;47.212;7.542;2023-05-20T17:06:33;5.17;;;4.63;;
4754;SDS011;2391;47.212;7.542;2023-05-20T17:08:59;5.73;;;5.23;;
4754;SDS011;2391;47.212;7.542;2023-05-20T17:11:27;4.60;;;4.30;;
4754;SDS011;2391;47.212;7.542;2023-05-20T17:13:52;5.60;;;5.10;;
4754;SDS011;2391;47.212;7.542;2023-05-20T17:16:18;4.90;;;4.50;;
4754;SDS011;2391;47.212;7.542;2023-05-20T17:18:44;4.60;;;4.30;;
4754;SDS011;2391;47.212;7.542;2023-05-20T17:21:09;10.10;;;5.83;;
4754;SDS011;2391;47.212;7.542;2023-05-20T17:23:35;9.20;;;6.63;;
4754;SDS011;2391;47.212;7.542;2023-05-20T17:26:01;6.87;;;6.17;;
4754;SDS011;2391;47.212;7.542;2023-05-20T17:28:27;8.47;;;6.23;;
4754;SDS011;2391;47.212;7.542;2023-05-20T17:30:52;8.20;;;6.80;;
4754;SDS011;2391;47.212;7.542;2023-05-20T17:33:18;6.07;;;5.57;;
4754;SDS011;2391;47.212;7.542;2023-05-20T17:35:44;6.30;;;5.80;;
4754;SDS011;2391;47.212;7.542;2023-05-20T17:38:10;7.60;;;6.07;;
4754;SDS011;2391;47.212;7.542;2023-05-20T17:40:35;6.57;;;5.50;;
4754;SDS011;2391;47.212;7.542;2023-05-20T17:43:01;5.70;;;5.10;;
4754;SDS011;2391;47.212;7.542;2023-05-20T17:45:27;5.77;;;5.30;;
4754;SDS011;2391;47.212;7.542;2023-05-20T17:47:52;6.40;;;5.60;;
4754;SDS011;2391;47.212;7.542;2023-05-20T17:50:18;6.00;;;5.40;;
4754;SDS011;2391;47.212;7.542;2023-05-20T17:52:44;6.80;;;6.03;;
4754;SDS011;2391;47.212;7.542;2023-05-20T17:55:09;6.43;;;5.77;;
4754;SDS011;2391;47.212;7.542;2023-05-20T17:57:37;5.97;;;5.37;;
4754;SDS011;2391;47.212;7.542;2023-05-20T18:00:03;6.60;;;5.87;;
4754;SDS011;2391;47.212;7.542;2023-05-20T18:02:29;7.00;;;5.73;;
4754;SDS011;2391;47.212;7.542;2023-05-20T18:04:55;5.50;;;5.00;;
4754;SDS011;2391;47.212;7.542;2023-05-20T18:07:21;6.37;;;5.30;;
4754;SDS011;2391;47.212;7.542;2023-05-20T18:09:47;5.73;;;5.23;;
4754;SDS011;2391;47.212;7.542;2023-05-20T18:12:13;6.67;;;6.03;;